sensor_id;sensor_type;location;lat;lon;timestamp;P1;durP1;ratioP1;P2;durP2;ratioP2
77409;SDS011;66481;51.332;22.804;2023-03-14T00:01:15;14.68;;;5.53;;
77409;SDS011;66481;51.332;22.804;2023-03-14T00:05:18;10.05;;;6.43;;
77409;SDS011;66481;51.332;22.804;2023-03-14T00:09:19;9.27;;;5.53;;
77409;SDS011;66481;51.332;22.804;2023-03-14T00:13:20;7.68;;;5.45;;
77409;SDS011;66481;51.332;22.804;2023-03-14T00:17:21;8.40;;;5.32;;
77409;SDS011;66481;51.332;22.804;2023-03-14T00:21:23;9.07;;;5.45;;
77409;SDS011;66481;51.332;22.804;2023-03-14T00:25:24;7.00;;;4.95;;
77409;SDS011;66481;51.332;22.804;2023-03-14T00:29:25;9.75;;;5.68;;
77409;SDS011;66481;51.332;22.804;2023-03-14T00:33:26;7.78;;;4.78;;
77409;SDS011;66481;51.332;22.804;2023-03-14T00:37:27;6.93;;;4.78;;
77409;SDS011;66481;51.332;22.804;2023-03-14T00:41:28;8.85;;;5.30;;
77409;SDS011;66481;51.332;22.804;2023-03-14T00:45:29;6.35;;;5.32;;
77409;SDS011;66481;51.332;22.804;2023-03-14T00:49:30;8.18;;;4.43;;
77409;SDS011;66481;51.332;22.804;2023-03-14T00:53:31;7.10;;;4.72;;
77409;SDS011;66481;51.332;22.804;2023-03-14T00:57:35;9.35;;;6.10;;
77409;SDS011;66481;51.332;22.804;2023-03-14T01:01:36;5.80;;;5.20;;
77409;SDS011;66481;51.332;22.804;2023-03-14T01:05:38;7.05;;;4.57;;
77409;SDS011;66481;51.332;22.804;2023-03-14T01:09:40;6.10;;;4.60;;
77409;SDS011;66481;51.332;22.804;2023-03-14T01:13:40;6.82;;;4.88;;
77409;SDS011;66481;51.332;22.804;2023-03-14T01:17:42;5.65;;;4.45;;
77409;SDS011;66481;51.332;22.804;2023-03-14T01:21:43;7.47;;;5.22;;
77409;SDS011;66481;51.332;22.804;2023-03-14T01:25:44;6.25;;;4.30;;
77409;SDS011;66481;51.332;22.804;2023-03-14T01:29:45;5.72;;;4.72;;
77409;SDS011;66481;51.332;22.804;2023-03-14T01:33:47;7.85;;;4.20;;
77409;SDS011;66481;51.332;22.804;2023-03-14T01:37:48;6.35;;;4.20;;
77409;SDS011;66481;51.332;22.804;2023-03-14T01:41:49;5.20;;;3.92;;
77409;SDS011;66481;51.332;22.804;2023-03-14T01:50:08;7.30;;;4.15;;
77409;SDS011;66481;51.332;22.804;2023-03-14T01:54:17;5.95;;;4.22;;
77409;SDS011;66481;51.332;22.804;2023-03-14T01:58:40;7.38;;;4.80;;
77409;SDS011;66481;51.332;22.804;2023-03-14T02:02:46;5.72;;;3.83;;
77409;SDS011;66481;51.332;22.804;2023-03-14T02:06:54;5.05;;;3.95;;
77409;SDS011;66481;51.332;22.804;2023-03-14T02:11:00;6.05;;;3.78;;
77409;SDS011;66481;51.332;22.804;2023-03-14T02:15:01;6.20;;;3.22;;
77409;SDS011;66481;51.332;22.804;2023-03-14T02:19:03;7.05;;;4.63;;
77409;SDS011;66481;51.332;22.804;2023-03-14T02:23:06;8.50;;;4.28;;
77409;SDS011;66481;51.332;22.804;2023-03-14T02:27:17;5.70;;;3.17;;
77409;SDS011;66481;51.332;22.804;2023-03-14T02:31:20;7.63;;;4.15;;
77409;SDS011;66481;51.332;22.804;2023-03-14T02:35:24;7.28;;;3.97;;
77409;SDS011;66481;51.332;22.804;2023-03-14T02:39:30;6.20;;;3.35;;
77409;SDS011;66481;51.332;22.804;2023-03-14T02:43:44;6.10;;;3.95;;
77409;SDS011;66481;51.332;22.804;2023-03-14T02:47:46;5.13;;;3.78;;
77409;SDS011;66481;51.332;22.804;2023-03-14T02:51:53;7.85;;;4.25;;
77409;SDS011;66481;51.332;22.804;2023-03-14T02:55:53;8.15;;;4.00;;
77409;SDS011;66481;51.332;22.804;2023-03-14T02:59:57;5.78;;;4.07;;
77409;SDS011;66481;51.332;22.804;2023-03-14T03:04:00;4.15;;;3.38;;
77409;SDS011;66481;51.332;22.804;2023-03-14T03:08:01;6.43;;;3.85;;
77409;SDS011;66481;51.332;22.804;2023-03-14T03:12:02;5.35;;;3.95;;
77409;SDS011;66481;51.332;22.804;2023-03-14T03:16:03;6.07;;;3.88;;
77409;SDS011;66481;51.332;22.804;2023-03-14T03:20:04;6.15;;;3.65;;
77409;SDS011;66481;51.332;22.804;2023-03-14T03:24:06;5.13;;;3.35;;
77409;SDS011;66481;51.332;22.804;2023-03-14T03:28:07;5.75;;;3.78;;
77409;SDS011;66481;51.332;22.804;2023-03-14T03:32:09;5.15;;;3.78;;
77409;SDS011;66481;51.332;22.804;2023-03-14T03:36:10;5.85;;;3.65;;
77409;SDS011;66481;51.332;22.804;2023-03-14T03:40:11;6.32;;;3.97;;
77409;SDS011;66481;51.332;22.804;2023-03-14T03:44:12;5.47;;;3.97;;
77409;SDS011;66481;51.332;22.804;2023-03-14T03:48:13;4.90;;;3.58;;
77409;SDS011;66481;51.332;22.804;2023-03-14T03:52:14;6.90;;;4.60;;
77409;SDS011;66481;51.332;22.804;2023-03-14T03:56:15;7.47;;;4.22;;
77409;SDS011;66481;51.332;22.804;2023-03-14T04:00:16;7.10;;;4.28;;
77409;SDS011;66481;51.332;22.804;2023-03-14T04:04:17;6.35;;;4.25;;
77409;SDS011;66481;51.332;22.804;2023-03-14T04:08:18;5.35;;;3.95;;
77409;SDS011;66481;51.332;22.804;2023-03-14T04:12:19;6.10;;;3.85;;
77409;SDS011;66481;51.332;22.804;2023-03-14T04:16:21;7.13;;;4.07;;
77409;SDS011;66481;51.332;22.804;2023-03-14T04:20:23;7.22;;;3.85;;
77409;SDS011;66481;51.332;22.804;2023-03-14T04:24:24;8.27;;;3.85;;
77409;SDS011;66481;51.332;22.804;2023-03-14T04:28:25;6.60;;;3.90;;
77409;SDS011;66481;51.332;22.804;2023-03-14T04:32:26;4.70;;;3.45;;
77409;SDS011;66481;51.332;22.804;2023-03-14T04:36:27;5.10;;;3.47;;
77409;SDS011;66481;51.332;22.804;2023-03-14T04:40:28;5.30;;;3.25;;
77409;SDS011;66481;51.332;22.804;2023-03-14T04:44:29;6.43;;;3.50;;
77409;SDS011;66481;51.332;22.804;2023-03-14T04:48:30;6.10;;;3.60;;
77409;SDS011;66481;51.332;22.804;2023-03-14T04:52:31;6.72;;;3.15;;
77409;SDS011;66481;51.332;22.804;2023-03-14T04:56:34;3.97;;;2.85;;
77409;SDS011;66481;51.332;22.804;2023-03-14T05:00:37;4.22;;;3.05;;
77409;SDS011;66481;51.332;22.804;2023-03-14T05:04:37;5.05;;;3.03;;
77409;SDS011;66481;51.332;22.804;2023-03-14T05:08:38;5.32;;;3.17;;
77409;SDS011;66481;51.332;22.804;2023-03-14T05:12:39;6.57;;;3.90;;
77409;SDS011;66481;51.332;22.804;2023-03-14T05:16:40;4.72;;;2.92;;
77409;SDS011;66481;51.332;22.804;2023-03-14T05:20:41;4.65;;;3.28;;
77409;SDS011;66481;51.332;22.804;2023-03-14T05:24:44;4.82;;;2.97;;
77409;SDS011;66481;51.332;22.804;2023-03-14T05:33:32;4.75;;;3.20;;
77409;SDS011;66481;51.332;22.804;2023-03-14T05:37:32;4.60;;;2.90;;
77409;SDS011;66481;51.332;22.804;2023-03-14T05:41:35;5.55;;;2.75;;
77409;SDS011;66481;51.332;22.804;2023-03-14T05:45:36;4.75;;;3.13;;
77409;SDS011;66481;51.332;22.804;2023-03-14T05:49:36;5.03;;;2.60;;
77409;SDS011;66481;51.332;22.804;2023-03-14T05:53:37;7.05;;;3.75;;
77409;SDS011;66481;51.332;22.804;2023-03-14T05:57:38;4.32;;;2.83;;
77409;SDS011;66481;51.332;22.804;2023-03-14T06:01:39;7.43;;;3.60;;
77409;SDS011;66481;51.332;22.804;2023-03-14T06:05:40;5.22;;;3.13;;
77409;SDS011;66481;51.332;22.804;2023-03-14T06:09:41;6.07;;;3.30;;
77409;SDS011;66481;51.332;22.804;2023-03-14T06:13:43;5.25;;;3.17;;
77409;SDS011;66481;51.332;22.804;2023-03-14T06:17:44;4.28;;;3.10;;
77409;SDS011;66481;51.332;22.804;2023-03-14T06:21:46;6.57;;;2.70;;
77409;SDS011;66481;51.332;22.804;2023-03-14T06:25:47;4.57;;;3.00;;
77409;SDS011;66481;51.332;22.804;2023-03-14T06:29:48;5.35;;;3.15;;
77409;SDS011;66481;51.332;22.804;2023-03-14T06:33:49;7.32;;;3.70;;
77409;SDS011;66481;51.332;22.804;2023-03-14T06:37:50;4.72;;;3.05;;
77409;SDS011;66481;51.332;22.804;2023-03-14T06:41:51;6.72;;;2.83;;
77409;SDS011;66481;51.332;22.804;2023-03-14T06:45:52;6.82;;;3.95;;
77409;SDS011;66481;51.332;22.804;2023-03-14T06:49:55;4.43;;;3.08;;
77409;SDS011;66481;51.332;22.804;2023-03-14T06:53:56;4.30;;;3.40;;
77409;SDS011;66481;51.332;22.804;2023-03-14T06:57:56;4.32;;;3.13;;
77409;SDS011;66481;51.332;22.804;2023-03-14T07:01:57;10.95;;;6.40;;
77409;SDS011;66481;51.332;22.804;2023-03-14T07:05:58;6.13;;;3.40;;
77409;SDS011;66481;51.332;22.804;2023-03-14T07:10:00;3.60;;;2.45;;
77409;SDS011;66481;51.332;22.804;2023-03-14T07:14:01;5.00;;;2.92;;
77409;SDS011;66481;51.332;22.804;2023-03-14T07:18:02;3.80;;;2.65;;
77409;SDS011;66481;51.332;22.804;2023-03-14T07:22:04;4.57;;;3.25;;
77409;SDS011;66481;51.332;22.804;2023-03-14T07:26:05;5.15;;;3.28;;
77409;SDS011;66481;51.332;22.804;2023-03-14T07:30:07;3.53;;;2.92;;
77409;SDS011;66481;51.332;22.804;2023-03-14T07:34:08;4.68;;;2.63;;
77409;SDS011;66481;51.332;22.804;2023-03-14T07:38:10;6.63;;;3.33;;
77409;SDS011;66481;51.332;22.804;2023-03-14T07:42:11;5.72;;;3.38;;
77409;SDS011;66481;51.332;22.804;2023-03-14T07:46:12;5.57;;;3.33;;
77409;SDS011;66481;51.332;22.804;2023-03-14T07:50:13;3.85;;;2.70;;
77409;SDS011;66481;51.332;22.804;2023-03-14T07:54:14;5.40;;;3.38;;
77409;SDS011;66481;51.332;22.804;2023-03-14T07:58:15;4.90;;;3.17;;
77409;SDS011;66481;51.332;22.804;2023-03-14T08:02:16;5.80;;;3.35;;
77409;SDS011;66481;51.332;22.804;2023-03-14T08:06:21;8.20;;;6.07;;
77409;SDS011;66481;51.332;22.804;2023-03-14T08:10:22;14.63;;;8.02;;
77409;SDS011;66481;51.332;22.804;2023-03-14T08:14:23;6.32;;;3.38;;
77409;SDS011;66481;51.332;22.804;2023-03-14T08:18:26;5.75;;;2.95;;
77409;SDS011;66481;51.332;22.804;2023-03-14T08:22:28;4.40;;;3.00;;
77409;SDS011;66481;51.332;22.804;2023-03-14T08:26:32;5.05;;;3.10;;
77409;SDS011;66481;51.332;22.804;2023-03-14T08:30:33;6.47;;;3.38;;
77409;SDS011;66481;51.332;22.804;2023-03-14T08:34:34;8.55;;;4.32;;
77409;SDS011;66481;51.332;22.804;2023-03-14T08:38:35;12.18;;;6.53;;
77409;SDS011;66481;51.332;22.804;2023-03-14T08:42:37;12.45;;;6.00;;
77409;SDS011;66481;51.332;22.804;2023-03-14T08:46:39;11.68;;;8.13;;
77409;SDS011;66481;51.332;22.804;2023-03-14T08:50:40;8.07;;;4.70;;
77409;SDS011;66481;51.332;22.804;2023-03-14T08:54:41;7.05;;;4.15;;
77409;SDS011;66481;51.332;22.804;2023-03-14T08:58:43;7.35;;;3.78;;
77409;SDS011;66481;51.332;22.804;2023-03-14T09:02:45;5.25;;;2.90;;
77409;SDS011;66481;51.332;22.804;2023-03-14T09:06:46;4.75;;;2.95;;
77409;SDS011;66481;51.332;22.804;2023-03-14T09:10:47;4.30;;;2.78;;
77409;SDS011;66481;51.332;22.804;2023-03-14T09:14:48;6.82;;;3.38;;
77409;SDS011;66481;51.332;22.804;2023-03-14T09:18:49;6.88;;;2.88;;
77409;SDS011;66481;51.332;22.804;2023-03-14T09:22:53;6.05;;;3.15;;
77409;SDS011;66481;51.332;22.804;2023-03-14T09:26:55;6.05;;;3.22;;
77409;SDS011;66481;51.332;22.804;2023-03-14T09:30:56;4.85;;;2.78;;
77409;SDS011;66481;51.332;22.804;2023-03-14T09:34:58;6.20;;;2.60;;
77409;SDS011;66481;51.332;22.804;2023-03-14T09:38:59;3.75;;;2.13;;
77409;SDS011;66481;51.332;22.804;2023-03-14T09:43:00;5.55;;;3.10;;
77409;SDS011;66481;51.332;22.804;2023-03-14T09:47:03;9.45;;;2.95;;
77409;SDS011;66481;51.332;22.804;2023-03-14T09:51:11;3.53;;;2.83;;
77409;SDS011;66481;51.332;22.804;2023-03-14T09:55:19;5.22;;;3.53;;
77409;SDS011;66481;51.332;22.804;2023-03-14T09:59:22;5.25;;;3.22;;
77409;SDS011;66481;51.332;22.804;2023-03-14T10:07:37;3.53;;;2.63;;
77409;SDS011;66481;51.332;22.804;2023-03-14T10:11:39;5.25;;;2.90;;
77409;SDS011;66481;51.332;22.804;2023-03-14T10:15:40;5.50;;;3.03;;
77409;SDS011;66481;51.332;22.804;2023-03-14T10:19:58;4.35;;;3.13;;
77409;SDS011;66481;51.332;22.804;2023-03-14T10:28:29;5.47;;;2.25;;
77409;SDS011;66481;51.332;22.804;2023-03-14T10:32:36;5.00;;;3.13;;
77409;SDS011;66481;51.332;22.804;2023-03-14T10:36:38;4.82;;;2.90;;
77409;SDS011;66481;51.332;22.804;2023-03-14T10:40:40;4.30;;;2.40;;
77409;SDS011;66481;51.332;22.804;2023-03-14T10:44:48;4.60;;;2.53;;
77409;SDS011;66481;51.332;22.804;2023-03-14T10:48:54;3.50;;;2.75;;
77409;SDS011;66481;51.332;22.804;2023-03-14T10:52:56;6.03;;;2.80;;
77409;SDS011;66481;51.332;22.804;2023-03-14T10:57:01;4.47;;;2.20;;
77409;SDS011;66481;51.332;22.804;2023-03-14T11:31:20;4.25;;;2.80;;
77409;SDS011;66481;51.332;22.804;2023-03-14T11:35:28;4.63;;;2.85;;
77409;SDS011;66481;51.332;22.804;2023-03-14T11:39:40;4.13;;;2.63;;
77409;SDS011;66481;51.332;22.804;2023-03-14T11:43:49;5.03;;;2.88;;
77409;SDS011;66481;51.332;22.804;2023-03-14T11:48:07;3.97;;;2.80;;
77409;SDS011;66481;51.332;22.804;2023-03-14T11:52:35;4.15;;;3.20;;
77409;SDS011;66481;51.332;22.804;2023-03-14T11:56:52;4.05;;;3.05;;
77409;SDS011;66481;51.332;22.804;2023-03-14T12:00:54;6.68;;;3.15;;
77409;SDS011;66481;51.332;22.804;2023-03-14T12:05:18;4.57;;;3.33;;
77409;SDS011;66481;51.332;22.804;2023-03-14T12:09:21;4.03;;;2.80;;
77409;SDS011;66481;51.332;22.804;2023-03-14T12:13:23;5.22;;;3.33;;
77409;SDS011;66481;51.332;22.804;2023-03-14T12:17:41;3.78;;;3.03;;
77409;SDS011;66481;51.332;22.804;2023-03-14T12:21:46;3.72;;;2.70;;
77409;SDS011;66481;51.332;22.804;2023-03-14T12:25:48;10.48;;;4.13;;
77409;SDS011;66481;51.332;22.804;2023-03-14T12:34:33;5.03;;;2.78;;
77409;SDS011;66481;51.332;22.804;2023-03-14T12:38:47;5.13;;;3.00;;
77409;SDS011;66481;51.332;22.804;2023-03-14T12:42:58;5.70;;;3.13;;
77409;SDS011;66481;51.332;22.804;2023-03-14T12:51:20;3.78;;;2.60;;
77409;SDS011;66481;51.332;22.804;2023-03-14T12:55:41;8.43;;;2.92;;
77409;SDS011;66481;51.332;22.804;2023-03-14T12:59:57;5.72;;;3.20;;
77409;SDS011;66481;51.332;22.804;2023-03-14T13:04:18;5.10;;;3.38;;
77409;SDS011;66481;51.332;22.804;2023-03-14T13:08:36;7.05;;;3.03;;
77409;SDS011;66481;51.332;22.804;2023-03-14T13:16:40;4.40;;;3.00;;
77409;SDS011;66481;51.332;22.804;2023-03-14T13:20:45;5.00;;;2.67;;
77409;SDS011;66481;51.332;22.804;2023-03-14T13:24:59;4.95;;;2.80;;
77409;SDS011;66481;51.332;22.804;2023-03-14T13:29:08;4.82;;;3.03;;
77409;SDS011;66481;51.332;22.804;2023-03-14T13:33:22;4.60;;;3.35;;
77409;SDS011;66481;51.332;22.804;2023-03-14T13:37:25;5.65;;;3.33;;
77409;SDS011;66481;51.332;22.804;2023-03-14T13:41:30;4.47;;;3.10;;
77409;SDS011;66481;51.332;22.804;2023-03-14T13:45:40;5.20;;;3.47;;
77409;SDS011;66481;51.332;22.804;2023-03-14T13:49:44;6.20;;;3.70;;
77409;SDS011;66481;51.332;22.804;2023-03-14T13:57:52;4.97;;;3.20;;
77409;SDS011;66481;51.332;22.804;2023-03-14T14:02:10;6.75;;;3.58;;
77409;SDS011;66481;51.332;22.804;2023-03-14T14:10:28;5.72;;;3.83;;
77409;SDS011;66481;51.332;22.804;2023-03-14T14:14:32;6.03;;;3.90;;
77409;SDS011;66481;51.332;22.804;2023-03-14T14:18:38;5.47;;;3.38;;
77409;SDS011;66481;51.332;22.804;2023-03-14T14:22:40;4.75;;;3.38;;
77409;SDS011;66481;51.332;22.804;2023-03-14T14:26:50;4.68;;;3.50;;
77409;SDS011;66481;51.332;22.804;2023-03-14T14:31:15;6.00;;;4.00;;
77409;SDS011;66481;51.332;22.804;2023-03-14T14:35:24;7.03;;;4.32;;
77409;SDS011;66481;51.332;22.804;2023-03-14T14:39:35;6.45;;;4.82;;
77409;SDS011;66481;51.332;22.804;2023-03-14T14:43:40;5.97;;;3.80;;
77409;SDS011;66481;51.332;22.804;2023-03-14T14:52:14;7.80;;;4.50;;
77409;SDS011;66481;51.332;22.804;2023-03-14T14:56:27;5.07;;;3.72;;
77409;SDS011;66481;51.332;22.804;2023-03-14T15:00:29;7.13;;;3.55;;
77409;SDS011;66481;51.332;22.804;2023-03-14T15:04:31;5.60;;;4.13;;
77409;SDS011;66481;51.332;22.804;2023-03-14T15:08:32;5.80;;;3.83;;
77409;SDS011;66481;51.332;22.804;2023-03-14T15:12:33;5.68;;;3.40;;
77409;SDS011;66481;51.332;22.804;2023-03-14T15:16:35;7.13;;;4.03;;
77409;SDS011;66481;51.332;22.804;2023-03-14T15:20:36;7.22;;;4.53;;
77409;SDS011;66481;51.332;22.804;2023-03-14T15:24:37;6.43;;;3.58;;
77409;SDS011;66481;51.332;22.804;2023-03-14T15:28:38;5.65;;;4.65;;
77409;SDS011;66481;51.332;22.804;2023-03-14T15:32:39;6.00;;;4.10;;
77409;SDS011;66481;51.332;22.804;2023-03-14T15:36:43;8.32;;;4.00;;
77409;SDS011;66481;51.332;22.804;2023-03-14T15:40:45;5.82;;;3.33;;
77409;SDS011;66481;51.332;22.804;2023-03-14T15:44:46;6.60;;;3.90;;
77409;SDS011;66481;51.332;22.804;2023-03-14T15:48:48;5.95;;;4.18;;
77409;SDS011;66481;51.332;22.804;2023-03-14T15:56:52;9.07;;;4.82;;
77409;SDS011;66481;51.332;22.804;2023-03-14T16:00:53;9.75;;;5.28;;
77409;SDS011;66481;51.332;22.804;2023-03-14T16:04:55;9.35;;;5.47;;
77409;SDS011;66481;51.332;22.804;2023-03-14T16:08:57;8.85;;;6.05;;
77409;SDS011;66481;51.332;22.804;2023-03-14T16:13:00;10.45;;;5.68;;
77409;SDS011;66481;51.332;22.804;2023-03-14T16:17:01;11.13;;;6.40;;
77409;SDS011;66481;51.332;22.804;2023-03-14T16:21:03;10.38;;;6.25;;
77409;SDS011;66481;51.332;22.804;2023-03-14T16:25:07;12.30;;;7.32;;
77409;SDS011;66481;51.332;22.804;2023-03-14T16:29:08;14.57;;;7.68;;
77409;SDS011;66481;51.332;22.804;2023-03-14T16:33:10;16.65;;;7.78;;
77409;SDS011;66481;51.332;22.804;2023-03-14T16:37:12;15.05;;;7.55;;
77409;SDS011;66481;51.332;22.804;2023-03-14T16:41:15;15.18;;;7.57;;
77409;SDS011;66481;51.332;22.804;2023-03-14T16:45:18;14.13;;;7.72;;
77409;SDS011;66481;51.332;22.804;2023-03-14T16:49:20;12.93;;;7.40;;
77409;SDS011;66481;51.332;22.804;2023-03-14T16:53:22;14.63;;;7.32;;
77409;SDS011;66481;51.332;22.804;2023-03-14T16:57:24;13.23;;;7.00;;
77409;SDS011;66481;51.332;22.804;2023-03-14T17:01:25;15.52;;;8.02;;
77409;SDS011;66481;51.332;22.804;2023-03-14T17:05:26;15.30;;;8.82;;
77409;SDS011;66481;51.332;22.804;2023-03-14T17:09:28;19.92;;;10.50;;
77409;SDS011;66481;51.332;22.804;2023-03-14T17:17:32;16.30;;;9.77;;
77409;SDS011;66481;51.332;22.804;2023-03-14T17:21:33;15.45;;;9.38;;
77409;SDS011;66481;51.332;22.804;2023-03-14T17:25:35;18.80;;;10.73;;
77409;SDS011;66481;51.332;22.804;2023-03-14T17:29:37;16.85;;;9.75;;
77409;SDS011;66481;51.332;22.804;2023-03-14T17:33:38;14.40;;;8.90;;
77409;SDS011;66481;51.332;22.804;2023-03-14T17:37:40;13.02;;;7.90;;
77409;SDS011;66481;51.332;22.804;2023-03-14T17:41:41;12.18;;;8.57;;
77409;SDS011;66481;51.332;22.804;2023-03-14T17:45:42;16.85;;;10.07;;
77409;SDS011;66481;51.332;22.804;2023-03-14T17:49:43;33.63;;;14.45;;
77409;SDS011;66481;51.332;22.804;2023-03-14T17:53:46;19.10;;;10.00;;
77409;SDS011;66481;51.332;22.804;2023-03-14T17:57:47;21.58;;;10.50;;
77409;SDS011;66481;51.332;22.804;2023-03-14T18:01:48;12.13;;;6.80;;
77409;SDS011;66481;51.332;22.804;2023-03-14T18:05:49;11.38;;;7.38;;
77409;SDS011;66481;51.332;22.804;2023-03-14T18:09:50;14.00;;;7.75;;
77409;SDS011;66481;51.332;22.804;2023-03-14T18:13:51;14.55;;;7.35;;
77409;SDS011;66481;51.332;22.804;2023-03-14T18:17:52;13.63;;;7.13;;
77409;SDS011;66481;51.332;22.804;2023-03-14T18:21:54;11.57;;;6.57;;
77409;SDS011;66481;51.332;22.804;2023-03-14T18:25:57;22.10;;;11.98;;
77409;SDS011;66481;51.332;22.804;2023-03-14T18:29:58;15.88;;;9.15;;
77409;SDS011;66481;51.332;22.804;2023-03-14T18:34:00;13.02;;;7.75;;
77409;SDS011;66481;51.332;22.804;2023-03-14T18:38:01;11.38;;;7.50;;
77409;SDS011;66481;51.332;22.804;2023-03-14T18:42:03;10.77;;;6.18;;
77409;SDS011;66481;51.332;22.804;2023-03-14T18:46:05;9.85;;;5.95;;
77409;SDS011;66481;51.332;22.804;2023-03-14T18:50:10;8.82;;;5.97;;
77409;SDS011;66481;51.332;22.804;2023-03-14T18:54:12;9.70;;;6.13;;
77409;SDS011;66481;51.332;22.804;2023-03-14T18:58:14;10.18;;;7.03;;
77409;SDS011;66481;51.332;22.804;2023-03-14T19:02:15;11.00;;;5.68;;
77409;SDS011;66481;51.332;22.804;2023-03-14T19:06:17;11.80;;;6.32;;
77409;SDS011;66481;51.332;22.804;2023-03-14T19:10:21;13.20;;;6.80;;
77409;SDS011;66481;51.332;22.804;2023-03-14T19:14:23;9.77;;;6.35;;
77409;SDS011;66481;51.332;22.804;2023-03-14T19:18:25;12.10;;;6.97;;
77409;SDS011;66481;51.332;22.804;2023-03-14T19:22:27;11.27;;;6.57;;
77409;SDS011;66481;51.332;22.804;2023-03-14T19:26:29;13.57;;;7.35;;
77409;SDS011;66481;51.332;22.804;2023-03-14T19:30:33;12.23;;;6.90;;
77409;SDS011;66481;51.332;22.804;2023-03-14T19:34:35;11.95;;;7.35;;
77409;SDS011;66481;51.332;22.804;2023-03-14T19:38:36;13.55;;;8.07;;
77409;SDS011;66481;51.332;22.804;2023-03-14T19:42:37;13.40;;;8.70;;
77409;SDS011;66481;51.332;22.804;2023-03-14T19:46:39;11.55;;;7.43;;
77409;SDS011;66481;51.332;22.804;2023-03-14T19:50:41;11.15;;;7.00;;
77409;SDS011;66481;51.332;22.804;2023-03-14T19:54:43;13.60;;;7.82;;
77409;SDS011;66481;51.332;22.804;2023-03-14T19:58:44;13.98;;;7.88;;
77409;SDS011;66481;51.332;22.804;2023-03-14T20:02:45;14.25;;;8.07;;
77409;SDS011;66481;51.332;22.804;2023-03-14T20:06:51;16.35;;;8.35;;
77409;SDS011;66481;51.332;22.804;2023-03-14T20:10:57;15.60;;;8.52;;
77409;SDS011;66481;51.332;22.804;2023-03-14T20:14:59;17.77;;;9.35;;
77409;SDS011;66481;51.332;22.804;2023-03-14T20:19:03;15.10;;;9.30;;
77409;SDS011;66481;51.332;22.804;2023-03-14T20:23:06;14.63;;;9.75;;
77409;SDS011;66481;51.332;22.804;2023-03-14T20:27:08;14.27;;;8.10;;
77409;SDS011;66481;51.332;22.804;2023-03-14T20:31:10;14.05;;;8.75;;
77409;SDS011;66481;51.332;22.804;2023-03-14T20:35:11;18.52;;;10.20;;
77409;SDS011;66481;51.332;22.804;2023-03-14T20:39:14;19.48;;;9.38;;
77409;SDS011;66481;51.332;22.804;2023-03-14T20:43:15;14.90;;;9.25;;
77409;SDS011;66481;51.332;22.804;2023-03-14T20:47:16;19.77;;;9.35;;
77409;SDS011;66481;51.332;22.804;2023-03-14T20:51:18;18.27;;;9.60;;
77409;SDS011;66481;51.332;22.804;2023-03-14T20:55:20;15.35;;;10.05;;
77409;SDS011;66481;51.332;22.804;2023-03-14T20:59:21;13.57;;;9.00;;
77409;SDS011;66481;51.332;22.804;2023-03-14T21:03:23;17.90;;;9.43;;
77409;SDS011;66481;51.332;22.804;2023-03-14T21:07:25;15.13;;;10.27;;
77409;SDS011;66481;51.332;22.804;2023-03-14T21:11:27;21.33;;;10.43;;
77409;SDS011;66481;51.332;22.804;2023-03-14T21:15:28;18.67;;;10.25;;
77409;SDS011;66481;51.332;22.804;2023-03-14T21:19:30;17.05;;;10.50;;
77409;SDS011;66481;51.332;22.804;2023-03-14T21:23:32;17.67;;;11.48;;
77409;SDS011;66481;51.332;22.804;2023-03-14T21:27:36;16.38;;;10.35;;
77409;SDS011;66481;51.332;22.804;2023-03-14T21:31:38;20.83;;;10.88;;
77409;SDS011;66481;51.332;22.804;2023-03-14T21:35:41;18.15;;;10.55;;
77409;SDS011;66481;51.332;22.804;2023-03-14T21:39:42;15.20;;;10.02;;
77409;SDS011;66481;51.332;22.804;2023-03-14T21:43:43;18.67;;;10.85;;
77409;SDS011;66481;51.332;22.804;2023-03-14T21:47:45;18.05;;;9.80;;
77409;SDS011;66481;51.332;22.804;2023-03-14T21:51:47;16.17;;;9.35;;
77409;SDS011;66481;51.332;22.804;2023-03-14T21:55:51;19.33;;;11.13;;
77409;SDS011;66481;51.332;22.804;2023-03-14T21:59:53;15.13;;;9.63;;
77409;SDS011;66481;51.332;22.804;2023-03-14T22:03:55;15.38;;;10.02;;
77409;SDS011;66481;51.332;22.804;2023-03-14T22:07:57;17.65;;;9.38;;
77409;SDS011;66481;51.332;22.804;2023-03-14T22:11:58;15.68;;;10.23;;
77409;SDS011;66481;51.332;22.804;2023-03-14T22:16:00;15.70;;;9.57;;
77409;SDS011;66481;51.332;22.804;2023-03-14T22:20:01;13.90;;;9.23;;
77409;SDS011;66481;51.332;22.804;2023-03-14T22:24:06;19.38;;;10.05;;
77409;SDS011;66481;51.332;22.804;2023-03-14T22:28:08;17.70;;;10.68;;
77409;SDS011;66481;51.332;22.804;2023-03-14T22:32:10;16.05;;;10.25;;
77409;SDS011;66481;51.332;22.804;2023-03-14T22:36:13;20.45;;;10.90;;
77409;SDS011;66481;51.332;22.804;2023-03-14T22:40:14;17.40;;;10.90;;
77409;SDS011;66481;51.332;22.804;2023-03-14T22:44:15;16.30;;;9.60;;
77409;SDS011;66481;51.332;22.804;2023-03-14T22:48:16;17.75;;;12.18;;
77409;SDS011;66481;51.332;22.804;2023-03-14T22:52:17;16.58;;;10.98;;
77409;SDS011;66481;51.332;22.804;2023-03-14T22:56:18;17.85;;;11.50;;
77409;SDS011;66481;51.332;22.804;2023-03-14T23:00:19;20.08;;;11.70;;
77409;SDS011;66481;51.332;22.804;2023-03-14T23:04:20;17.75;;;10.98;;
77409;SDS011;66481;51.332;22.804;2023-03-14T23:08:21;18.25;;;11.88;;
77409;SDS011;66481;51.332;22.804;2023-03-14T23:12:22;19.60;;;11.65;;
77409;SDS011;66481;51.332;22.804;2023-03-14T23:16:23;19.27;;;10.15;;
77409;SDS011;66481;51.332;22.804;2023-03-14T23:20:24;20.15;;;11.23;;
77409;SDS011;66481;51.332;22.804;2023-03-14T23:24:25;15.77;;;10.05;;
77409;SDS011;66481;51.332;22.804;2023-03-14T23:28:26;16.98;;;10.32;;
77409;SDS011;66481;51.332;22.804;2023-03-14T23:32:27;17.83;;;11.25;;
77409;SDS011;66481;51.332;22.804;2023-03-14T23:36:28;21.15;;;11.55;;
77409;SDS011;66481;51.332;22.804;2023-03-14T23:40:30;17.85;;;11.10;;
77409;SDS011;66481;51.332;22.804;2023-03-14T23:44:31;17.83;;;11.18;;
77409;SDS011;66481;51.332;22.804;2023-03-14T23:48:37;19.55;;;11.70;;
77409;SDS011;66481;51.332;22.804;2023-03-14T23:52:39;17.67;;;11.20;;
77409;SDS011;66481;51.332;22.804;2023-03-14T23:56:39;17.10;;;11.65;;
